Time;durP1;ratioP1;P1;durP2;ratioP2;P2;SDS_P1;SDS_P2;PMS_P1;PMS_P2;Temp;Humidity;BMP_temperature;BMP_pressure;BME280_temperature;BME280_humidity;BME280_pressure;Samples;Min_cycle;Max_cycle;Signal;HPM_P1;HPM_P2
2021/09/29 00:02:12;;;;;;;3.00;2.67;;;23.90;58.30;;;;;;5063190;28;20483;-75
2021/09/29 00:04:38;;;;;;;3.00;2.70;;;23.90;58.30;;;;;;5065536;28;20388;-68
2021/09/29 00:07:04;;;;;;;3.17;2.80;;;23.90;58.30;;;;;;5065100;28;20395;-68
2021/09/29 00:09:29;;;;;;;3.20;2.90;;;23.90;58.30;;;;;;5064581;28;20415;-77
2021/09/29 00:11:55;;;;;;;3.00;2.70;;;23.90;58.30;;;;;;5064677;28;20392;-68
2021/09/29 00:14:21;;;;;;;4.50;3.05;;;23.90;58.30;;;;;;5064756;28;20396;-77
2021/09/29 00:16:47;;;;;;;3.03;2.73;;;23.80;58.20;;;;;;5064579;28;20380;-68
2021/09/29 00:19:13;;;;;;;3.22;2.92;;;23.80;58.20;;;;;;5065160;28;20490;-68
2021/09/29 00:21:42;;;;;;;3.10;2.80;;;23.80;58.20;;;;;;5065890;28;20478;-74
2021/09/29 00:24:07;;;;;;;3.10;2.80;;;23.80;58.20;;;;;;5065834;28;20390;-74
2021/09/29 00:26:33;;;;;;;3.17;2.88;;;23.80;58.20;;;;;;5063437;28;20403;-77
2021/09/29 00:28:59;;;;;;;3.33;3.03;;;23.80;58.20;;;;;;5064750;28;20403;-78
2021/09/29 00:34:06;;;;;;;2.95;2.65;;;23.80;58.20;;;;;;5065922;28;20394;-77
2021/09/29 00:36:33;;;;;;;2.90;2.60;;;23.80;58.20;;;;;;5059574;28;20395;-78
2021/09/29 00:38:58;;;;;;;3.35;2.95;;;23.80;58.20;;;;;;5059392;28;20388;-75
2021/09/29 00:41:24;;;;;;;2.78;2.45;;;23.80;58.20;;;;;;5065261;28;20525;-74
2021/09/29 00:43:50;;;;;;;3.10;2.80;;;23.80;58.20;;;;;;5065301;28;20851;-77
2021/09/29 00:46:15;;;;;;;3.03;2.70;;;23.80;58.30;;;;;;5064723;28;20391;-69
2021/09/29 00:48:41;;;;;;;3.10;2.80;;;23.80;58.30;;;;;;5065103;28;20396;-68
2021/09/29 00:51:09;;;;;;;3.23;2.70;;;23.80;58.20;;;;;;5065001;28;20415;-68
2021/09/29 00:53:35;;;;;;;3.28;2.90;;;23.80;58.20;;;;;;5065441;28;20430;-69
2021/09/29 00:56:00;;;;;;;2.97;2.60;;;23.80;58.20;;;;;;5064864;28;20934;-69
2021/09/29 00:58:26;;;;;;;3.00;2.70;;;23.80;58.20;;;;;;5063956;28;20392;-69
2021/09/29 01:00:52;;;;;;;3.30;2.80;;;23.80;58.20;;;;;;5063556;28;20420;-69
2021/09/29 01:03:18;;;;;;;2.92;2.63;;;23.80;58.20;;;;;;5057317;28;20403;-73
2021/09/29 01:05:47;;;;;;;3.10;2.80;;;23.70;58.20;;;;;;5063381;28;20471;-77
2021/09/29 01:08:16;;;;;;;2.90;2.60;;;23.70;58.20;;;;;;5062367;28;20410;-78
2021/09/29 01:10:48;;;;;;;3.08;2.63;;;23.80;58.20;;;;;;5063597;28;20420;-78
2021/09/29 01:13:24;;;;;;;2.92;2.63;;;23.80;58.20;;;;;;5063566;28;20375;-77
2021/09/29 01:15:55;;;;;;;2.80;2.60;;;23.70;58.20;;;;;;5064342;28;20410;-68
2021/09/29 01:18:24;;;;;;;2.80;2.55;;;23.80;58.20;;;;;;5062343;28;20372;-68
2021/09/29 01:21:12;;;;;;;3.80;2.80;;;23.70;58.10;;;;;;5063335;28;20392;-71
2021/09/29 01:23:58;;;;;;;3.20;2.70;;;23.70;58.20;;;;;;5061820;28;20423;-68
2021/09/29 01:26:31;;;;;;;2.97;2.67;;;23.70;58.20;;;;;;5063913;28;20478;-72
2021/09/29 01:29:09;;;;;;;3.42;2.80;;;23.70;58.20;;;;;;5064644;28;20415;-68
2021/09/29 01:31:36;;;;;;;2.60;2.40;;;23.70;58.20;;;;;;5064361;28;20395;-68
2021/09/29 01:34:04;;;;;;;2.45;2.25;;;23.70;58.20;;;;;;5063249;28;20799;-69
2021/09/29 01:36:30;;;;;;;3.00;2.70;;;23.70;58.20;;;;;;5063587;28;20388;-68
2021/09/29 01:38:58;;;;;;;2.70;2.42;;;23.70;58.10;;;;;;5063069;28;20891;-67
2021/09/29 01:41:26;;;;;;;2.72;2.47;;;23.80;58.10;;;;;;5062098;28;20395;-68
2021/09/29 01:43:52;;;;;;;2.90;2.50;;;23.70;58.10;;;;;;5062338;28;20533;-69
2021/09/29 01:46:19;;;;;;;3.15;2.40;;;23.70;58.10;;;;;;5062384;28;20398;-68
2021/09/29 01:49:06;;;;;;;3.30;2.70;;;23.70;57.90;;;;;;5062874;28;20926;-68
2021/09/29 01:51:37;;;;;;;3.03;2.72;;;23.70;58.00;;;;;;5063041;28;20502;-77
2021/09/29 01:54:05;;;;;;;3.20;2.70;;;23.70;58.10;;;;;;5062982;28;20486;-78
2021/09/29 01:56:32;;;;;;;3.58;2.78;;;23.70;58.00;;;;;;5062704;28;20425;-76
2021/09/29 01:58:58;;;;;;;3.20;2.70;;;23.70;58.00;;;;;;5062440;28;20410;-72
2021/09/29 02:01:25;;;;;;;3.83;2.88;;;23.70;57.90;;;;;;5057910;28;20384;-68
2021/09/29 02:03:50;;;;;;;3.08;2.70;;;23.70;57.90;;;;;;5063048;28;20391;-69
2021/09/29 02:06:16;;;;;;;3.42;2.55;;;23.60;57.80;;;;;;5062570;28;20380;-68
2021/09/29 02:08:42;;;;;;;2.90;2.50;;;23.70;57.80;;;;;;5063621;28;20913;-68
2021/09/29 02:11:08;;;;;;;2.80;2.53;;;23.70;58.00;;;;;;5063629;28;20822;-74
2021/09/29 02:13:33;;;;;;;3.63;2.50;;;23.70;58.00;;;;;;5063976;28;20384;-78
2021/09/29 02:15:59;;;;;;;2.85;2.47;;;23.60;58.00;;;;;;5062103;28;20411;-68
2021/09/29 02:18:26;;;;;;;3.10;2.60;;;23.70;58.00;;;;;;5062065;28;20414;-69
2021/09/29 02:20:52;;;;;;;2.70;2.40;;;23.60;57.90;;;;;;5062174;28;20814;-68
2021/09/29 02:23:20;;;;;;;3.60;2.60;;;23.60;57.90;;;;;;5061786;28;20445;-69
2021/09/29 02:25:46;;;;;;;2.75;2.47;;;23.70;57.70;;;;;;5052772;28;20396;-68
2021/09/29 02:28:11;;;;;;;2.90;2.40;;;23.60;57.70;;;;;;5061979;28;20421;-68
2021/09/29 02:30:37;;;;;;;2.70;2.33;;;23.60;57.70;;;;;;5061240;28;20416;-68
2021/09/29 02:33:03;;;;;;;2.83;2.33;;;23.60;57.50;;;;;;5061723;28;20463;-68
2021/09/29 02:35:28;;;;;;;3.70;2.10;;;23.60;57.60;;;;;;5062146;28;20407;-68
2021/09/29 02:37:54;;;;;;;2.90;2.60;;;23.60;57.60;;;;;;5061880;28;20422;-68
2021/09/29 02:40:22;;;;;;;2.53;2.30;;;23.60;57.60;;;;;;5059613;28;20399;-68
2021/09/29 02:42:49;;;;;;;3.20;2.60;;;23.60;57.60;;;;;;5062325;28;20391;-69
2021/09/29 02:45:14;;;;;;;3.10;2.30;;;23.60;57.60;;;;;;5062122;28;20891;-68
2021/09/29 02:47:40;;;;;;;3.38;2.40;;;23.60;57.60;;;;;;5062172;28;20441;-69
2021/09/29 02:50:06;;;;;;;2.73;2.53;;;23.60;57.70;;;;;;5050324;28;20424;-68
2021/09/29 02:52:32;;;;;;;3.72;2.50;;;23.60;57.70;;;;;;5050062;28;20388;-69
2021/09/29 02:54:58;;;;;;;3.00;2.50;;;23.60;57.70;;;;;;5061728;28;20399;-69
2021/09/29 02:57:23;;;;;;;3.30;2.40;;;23.60;57.70;;;;;;5061905;28;20391;-68
2021/09/29 02:59:49;;;;;;;2.92;2.63;;;23.60;57.70;;;;;;5061933;28;20457;-68
2021/09/29 03:02:15;;;;;;;3.00;2.50;;;23.60;57.60;;;;;;5061014;28;20402;-68
2021/09/29 03:04:40;;;;;;;3.33;2.60;;;23.60;57.80;;;;;;5061417;28;20446;-67
2021/09/29 03:07:06;;;;;;;2.70;2.50;;;23.60;57.60;;;;;;5061582;28;20390;-68
2021/09/29 03:09:32;;;;;;;3.03;2.60;;;23.60;57.70;;;;;;5060327;28;20907;-68
2021/09/29 03:11:58;;;;;;;3.08;2.58;;;23.60;57.60;;;;;;5061428;28;20388;-68
2021/09/29 03:14:23;;;;;;;2.80;2.47;;;23.60;57.70;;;;;;5061350;28;20417;-69
2021/09/29 03:16:49;;;;;;;3.33;2.70;;;23.60;57.70;;;;;;5061341;28;20558;-70
2021/09/29 03:19:14;;;;;;;2.50;2.13;;;23.60;57.60;;;;;;5061593;28;20384;-68
2021/09/29 03:21:40;;;;;;;2.70;2.10;;;23.60;57.70;;;;;;5061470;28;20396;-68
2021/09/29 03:24:06;;;;;;;2.95;2.65;;;23.50;57.70;;;;;;5061169;28;20384;-68
2021/09/29 03:26:32;;;;;;;2.70;2.33;;;23.50;57.70;;;;;;5060658;28;20422;-69
2021/09/29 03:28:57;;;;;;;3.13;2.30;;;23.60;57.70;;;;;;5062876;28;20387;-68
2021/09/29 03:31:23;;;;;;;2.83;2.37;;;23.60;57.70;;;;;;5065606;28;20516;-69
2021/09/29 03:33:49;;;;;;;2.83;2.50;;;23.50;57.60;;;;;;5065237;28;20387;-69
2021/09/29 03:36:14;;;;;;;3.00;2.40;;;23.60;57.70;;;;;;5064803;28;20394;-68
2021/09/29 03:38:40;;;;;;;3.17;2.43;;;23.50;57.70;;;;;;5064703;28;20725;-68
2021/09/29 03:41:06;;;;;;;2.67;2.40;;;23.60;57.70;;;;;;5057035;28;20391;-68
2021/09/29 03:43:31;;;;;;;2.70;2.40;;;23.50;57.60;;;;;;5064186;28;21524;-69
2021/09/29 03:45:57;;;;;;;2.90;2.08;;;23.50;57.60;;;;;;5064565;28;21415;-68
2021/09/29 03:48:23;;;;;;;3.50;2.20;;;23.60;57.80;;;;;;5064354;28;21070;-68
2021/09/29 03:50:49;;;;;;;2.85;2.13;;;23.50;57.60;;;;;;5064875;28;20422;-69
2021/09/29 03:53:14;;;;;;;2.97;2.13;;;23.50;57.70;;;;;;5064781;28;20387;-69
2021/09/29 03:55:40;;;;;;;2.50;1.98;;;23.50;57.70;;;;;;5064350;28;20400;-69
2021/09/29 03:58:06;;;;;;;2.70;2.27;;;23.50;57.60;;;;;;5064135;28;20400;-68
2021/09/29 04:00:31;;;;;;;2.75;2.30;;;23.50;57.60;;;;;;5051644;28;21196;-68
2021/09/29 04:02:57;;;;;;;2.30;2.10;;;23.50;57.60;;;;;;5063542;28;20388;-68
2021/09/29 04:05:22;;;;;;;2.93;2.23;;;23.50;57.60;;;;;;5064745;28;20404;-68
2021/09/29 04:07:48;;;;;;;2.50;2.00;;;23.50;57.60;;;;;;5064741;28;20407;-68
2021/09/29 04:10:14;;;;;;;3.27;2.37;;;23.50;57.60;;;;;;5096811;28;20903;-68
2021/09/29 04:12:42;;;;;;;2.88;2.08;;;23.50;57.50;;;;;;5064777;28;20769;-68
2021/09/29 04:15:09;;;;;;;2.72;2.22;;;23.50;57.60;;;;;;5064893;28;20392;-68
2021/09/29 04:17:36;;;;;;;3.00;2.15;;;23.50;57.60;;;;;;5064629;28;20520;-68
2021/09/29 04:20:04;;;;;;;2.80;2.08;;;23.50;57.60;;;;;;5058784;28;20498;-68
2021/09/29 04:22:30;;;;;;;2.97;2.28;;;23.50;57.60;;;;;;5064091;28;20891;-69
2021/09/29 04:24:56;;;;;;;2.20;1.90;;;23.50;57.50;;;;;;5046137;28;20458;-68
2021/09/29 04:27:22;;;;;;;2.17;1.80;;;23.50;57.50;;;;;;5064092;28;20396;-68
2021/09/29 04:29:47;;;;;;;2.03;1.50;;;23.40;57.50;;;;;;5063809;28;20420;-68
2021/09/29 04:32:13;;;;;;;2.35;2.10;;;23.50;57.60;;;;;;5062681;28;20403;-68
2021/09/29 04:34:40;;;;;;;2.42;2.00;;;23.50;57.50;;;;;;5062301;28;20908;-69
2021/09/29 04:37:06;;;;;;;2.03;1.80;;;23.40;57.40;;;;;;5064019;28;20399;-68
2021/09/29 04:39:32;;;;;;;2.28;1.67;;;23.50;57.40;;;;;;5063629;28;20772;-68
2021/09/29 04:41:58;;;;;;;2.45;1.98;;;23.50;57.50;;;;;;5063045;28;20396;-68
2021/09/29 04:44:23;;;;;;;2.00;1.67;;;23.40;57.70;;;;;;5063125;28;20399;-73
2021/09/29 04:46:49;;;;;;;2.27;1.60;;;23.40;57.30;;;;;;5052177;28;20478;-68
2021/09/29 04:49:15;;;;;;;2.38;1.90;;;23.40;57.40;;;;;;5063948;28;20394;-68
2021/09/29 04:51:40;;;;;;;2.07;1.63;;;23.40;57.40;;;;;;5064242;28;20464;-69
2021/09/29 04:54:06;;;;;;;2.38;1.67;;;23.40;57.40;;;;;;5063816;28;20829;-70
2021/09/29 04:56:32;;;;;;;2.03;1.53;;;23.40;57.40;;;;;;5063194;28;20841;-68
2021/09/29 04:58:57;;;;;;;2.22;1.70;;;23.40;57.40;;;;;;5063943;28;20384;-70
2021/09/29 05:01:27;;;;;;;1.77;1.63;;;23.40;57.40;;;;;;5063791;28;20469;-68
2021/09/29 05:03:53;;;;;;;1.70;1.50;;;23.40;57.30;;;;;;5063919;28;20402;-68
2021/09/29 05:06:19;;;;;;;3.33;2.00;;;23.40;57.30;;;;;;5063350;28;20388;-73
2021/09/29 05:08:49;;;;;;;4.63;1.80;;;23.40;58.10;;;;;;5063278;28;20407;-68
2021/09/29 05:11:38;;;;;;;4.40;1.60;;;23.40;57.90;;;;;;5063409;28;20458;-69
2021/09/29 05:14:04;;;;;;;2.92;1.75;;;23.40;58.90;;;;;;5063626;28;20387;-68
2021/09/29 05:16:30;;;;;;;2.50;1.60;;;23.40;59.70;;;;;;5063724;28;20726;-69
2021/09/29 05:18:56;;;;;;;2.77;1.83;;;23.40;58.90;;;;;;5063352;28;20758;-69
2021/09/29 05:21:22;;;;;;;3.60;2.00;;;23.50;59.60;;;;;;5063223;28;20807;-71
2021/09/29 05:23:48;;;;;;;1.85;1.40;;;23.40;58.50;;;;;;5063912;28;20410;-69
2021/09/29 05:26:17;;;;;;;4.90;1.87;;;23.40;58.30;;;;;;5063475;28;20395;-69
2021/09/29 05:28:48;;;;;;;4.38;1.70;;;23.50;58.00;;;;;;5063995;28;20440;-68
2021/09/29 05:31:14;;;;;;;2.50;1.63;;;23.40;57.80;;;;;;5062921;28;20427;-68
2021/09/29 05:33:39;;;;;;;2.80;1.67;;;23.40;58.20;;;;;;5063846;28;20471;-74
2021/09/29 05:36:05;;;;;;;3.27;1.50;;;23.40;58.20;;;;;;5058003;28;20478;-68
2021/09/29 05:38:31;;;;;;;2.65;1.58;;;23.40;58.10;;;;;;5064070;28;20441;-71
2021/09/29 05:40:56;;;;;;;3.30;1.80;;;23.50;59.20;;;;;;5063135;28;20502;-69
2021/09/29 05:43:22;;;;;;;3.78;1.70;;;23.50;59.20;;;;;;5062739;28;20387;-70
2021/09/29 05:45:48;;;;;;;3.90;1.90;;;23.50;59.00;;;;;;5061411;28;20735;-71
2021/09/29 05:48:14;;;;;;;3.80;1.63;;;23.50;59.10;;;;;;5062538;28;20387;-72
2021/09/29 05:50:40;;;;;;;2.55;1.50;;;23.50;59.30;;;;;;5062861;28;20431;-72
2021/09/29 05:53:05;;;;;;;2.70;1.47;;;23.50;58.40;;;;;;5062749;28;20414;-71
2021/09/29 05:55:31;;;;;;;2.27;1.30;;;23.50;58.30;;;;;;5062588;28;20392;-71
2021/09/29 05:57:57;;;;;;;2.15;1.60;;;23.40;58.70;;;;;;5062692;28;20392;-68
2021/09/29 06:00:23;;;;;;;4.00;1.70;;;23.40;59.00;;;;;;5063068;28;20417;-68
2021/09/29 06:02:48;;;;;;;2.60;1.60;;;23.50;59.30;;;;;;5063537;28;20432;-72
2021/09/29 06:05:17;;;;;;;3.05;2.03;;;23.50;59.10;;;;;;5062321;28;20883;-68
2021/09/29 06:07:42;;;;;;;3.63;1.58;;;23.50;59.20;;;;;;5061544;28;20458;-69
2021/09/29 06:10:09;;;;;;;2.00;1.30;;;23.50;58.60;;;;;;5062037;28;20415;-69
2021/09/29 06:12:37;;;;;;;4.95;1.30;;;23.40;58.90;;;;;;5060461;28;20759;-68
2021/09/29 06:15:04;;;;;;;2.37;1.47;;;23.40;59.00;;;;;;5062489;28;20930;-69
2021/09/29 06:17:39;;;;;;;2.33;1.50;;;23.40;59.00;;;;;;5062804;28;20526;-68
2021/09/29 06:20:07;;;;;;;3.83;1.50;;;23.40;59.00;;;;;;5062232;28;20380;-69
2021/09/29 06:22:32;;;;;;;2.90;1.60;;;23.40;59.10;;;;;;5061327;28;20457;-69
2021/09/29 06:24:59;;;;;;;3.10;1.50;;;23.40;59.00;;;;;;5063487;28;20475;-69
2021/09/29 06:27:24;;;;;;;3.37;1.80;;;23.40;59.20;;;;;;5063102;28;20474;-69
2021/09/29 06:29:51;;;;;;;2.83;1.60;;;23.50;59.70;;;;;;5062283;28;20407;-72
2021/09/29 06:32:16;;;;;;;3.22;1.52;;;23.50;60.00;;;;;;5061557;28;20410;-71
2021/09/29 06:34:43;;;;;;;3.13;1.50;;;23.60;59.90;;;;;;5061799;28;20384;-70
2021/09/29 06:37:09;;;;;;;3.35;1.50;;;23.60;59.80;;;;;;5062122;28;20392;-70
2021/09/29 06:39:35;;;;;;;2.75;1.40;;;23.60;59.60;;;;;;5062830;28;20493;-73
2021/09/29 06:42:00;;;;;;;3.83;1.40;;;23.60;59.60;;;;;;5061591;28;20921;-74
2021/09/29 06:44:28;;;;;;;6.47;1.65;;;23.60;59.60;;;;;;5061605;28;20406;-70
2021/09/29 06:46:54;;;;;;;2.10;1.30;;;23.70;59.60;;;;;;5062069;28;20449;-69
2021/09/29 06:49:20;;;;;;;3.13;1.40;;;23.70;59.50;;;;;;5062043;28;20419;-68
2021/09/29 06:51:46;;;;;;;2.55;1.35;;;23.70;59.50;;;;;;5061734;28;20892;-68
2021/09/29 06:54:11;;;;;;;4.27;1.40;;;23.70;59.60;;;;;;5051952;28;20411;-71
2021/09/29 06:56:37;;;;;;;5.47;1.52;;;23.70;59.60;;;;;;5062121;28;20387;-69
2021/09/29 06:59:03;;;;;;;7.33;1.70;;;23.70;59.60;;;;;;5062503;28;20411;-70
2021/09/29 07:01:28;;;;;;;6.55;1.52;;;23.70;59.60;;;;;;5061857;28;20414;-70
2021/09/29 07:03:54;;;;;;;4.87;1.60;;;23.70;59.50;;;;;;5065624;28;20440;-68
2021/09/29 07:06:20;;;;;;;4.60;1.60;;;23.60;59.20;;;;;;5066115;28;20390;-72
2021/09/29 07:08:48;;;;;;;5.38;1.70;;;23.60;58.90;;;;;;5065371;28;20415;-77
2021/09/29 07:11:16;;;;;;;6.80;1.40;;;23.60;60.30;;;;;;5065981;28;20775;-69
2021/09/29 07:13:42;;;;;;;4.53;2.00;;;23.60;59.90;;;;;;5066218;28;20995;-70
2021/09/29 07:16:09;;;;;;;3.40;1.30;;;23.70;59.70;;;;;;5065710;28;20430;-69
2021/09/29 07:18:38;;;;;;;5.28;1.65;;;23.60;59.60;;;;;;5065617;28;20376;-69
2021/09/29 07:21:04;;;;;;;4.18;1.55;;;23.60;59.40;;;;;;5065957;28;20414;-70
2021/09/29 07:23:30;;;;;;;4.35;1.48;;;23.60;59.10;;;;;;5065439;28;21208;-69
2021/09/29 07:25:56;;;;;;;3.17;1.50;;;23.60;58.80;;;;;;5065913;28;20391;-69
2021/09/29 07:28:22;;;;;;;4.90;1.60;;;23.50;58.80;;;;;;5066001;28;20392;-69
2021/09/29 07:30:47;;;;;;;3.53;1.30;;;23.50;58.60;;;;;;5065320;28;20500;-71
2021/09/29 07:33:15;;;;;;;3.75;1.73;;;23.50;59.20;;;;;;5065448;28;20880;-69
2021/09/29 07:35:43;;;;;;;5.20;1.52;;;23.50;59.10;;;;;;5065841;28;20391;-70
2021/09/29 07:38:09;;;;;;;4.93;1.65;;;23.50;58.90;;;;;;5065304;28;20383;-70
2021/09/29 07:40:35;;;;;;;4.57;1.60;;;23.50;58.70;;;;;;5064776;28;20388;-72
2021/09/29 07:43:02;;;;;;;3.85;1.70;;;23.40;58.60;;;;;;5064006;28;20387;-74
2021/09/29 07:45:28;;;;;;;3.33;1.60;;;23.50;58.60;;;;;;5064791;28;20395;-72
2021/09/29 07:47:53;;;;;;;3.15;1.35;;;23.50;58.60;;;;;;5064651;28;20415;-71
2021/09/29 07:50:20;;;;;;;2.70;1.70;;;23.40;58.60;;;;;;5064599;28;20899;-71
2021/09/29 07:52:47;;;;;;;4.47;1.70;;;23.40;58.50;;;;;;5063878;28;20932;-69
2021/09/29 07:55:13;;;;;;;3.20;1.60;;;23.40;58.50;;;;;;5064295;28;20403;-73
2021/09/29 07:57:39;;;;;;;4.40;1.80;;;23.40;58.50;;;;;;5065005;28;20384;-72
2021/09/29 08:00:07;;;;;;;2.70;1.30;;;23.40;58.50;;;;;;5096517;28;20399;-69
2021/09/29 08:02:33;;;;;;;2.33;1.27;;;23.40;58.60;;;;;;5064013;28;20822;-74
2021/09/29 08:05:01;;;;;;;4.13;1.47;;;23.40;58.40;;;;;;5064914;28;20813;-69
2021/09/29 08:07:27;;;;;;;3.35;1.42;;;23.40;58.40;;;;;;5064174;28;20394;-69
2021/09/29 08:09:53;;;;;;;2.67;1.30;;;23.40;58.50;;;;;;5064386;28;20423;-69
2021/09/29 08:12:18;;;;;;;2.50;1.35;;;23.40;58.30;;;;;;5064895;28;20438;-69
2021/09/29 08:14:44;;;;;;;3.20;1.67;;;23.40;59.40;;;;;;5062241;28;20922;-70
2021/09/29 08:17:10;;;;;;;4.20;1.52;;;23.40;59.00;;;;;;5056456;28;20494;-70
2021/09/29 08:19:36;;;;;;;2.60;1.70;;;23.40;58.90;;;;;;5064336;28;20388;-68
2021/09/29 08:22:05;;;;;;;2.95;1.27;;;23.40;59.20;;;;;;5058064;28;20725;-68
2021/09/29 08:24:58;;;;;;;3.80;1.70;;;23.40;59.20;;;;;;5064545;28;20391;-68
2021/09/29 08:27:29;;;;;;;3.22;1.40;;;23.50;60.60;;;;;;5064441;28;20742;-70
2021/09/29 08:30:14;;;;;;;2.38;1.30;;;23.50;60.10;;;;;;5063902;28;20415;-69
2021/09/29 08:32:52;;;;;;;3.47;1.83;;;23.60;60.10;;;;;;5060193;28;20411;-69
2021/09/29 08:38:02;;;;;;;3.83;1.40;;;23.60;60.00;;;;;;5063906;28;20436;-68
2021/09/29 08:46:02;;;;;;;1.80;1.10;;;23.70;59.40;;;;;;5064338;28;20411;-69
2021/09/29 09:18:16;;;;;;;3.43;1.30;;;23.70;59.00;;;;;;5062919;28;20387;-71
2021/09/29 09:20:48;;;;;;;3.03;1.40;;;23.70;58.90;;;;;;5061744;28;20474;-71
2021/09/29 09:23:14;;;;;;;3.55;1.45;;;23.70;58.60;;;;;;5060589;28;20396;-70
2021/09/29 09:25:44;;;;;;;2.60;1.10;;;23.60;58.10;;;;;;5061813;28;20799;-75
2021/09/29 09:28:27;;;;;;;2.92;1.20;;;23.60;58.70;;;;;;5094119;28;20383;-71
2021/09/29 09:30:57;;;;;;;2.90;1.20;;;23.50;58.40;;;;;;5060202;28;20430;-73
2021/09/29 09:33:26;;;;;;;2.67;1.10;;;23.50;58.40;;;;;;5062277;28;21005;-71
2021/09/29 09:35:53;;;;;;;2.35;1.20;;;23.50;58.50;;;;;;5058289;28;20905;-72
2021/09/29 09:38:26;;;;;;;3.42;1.10;;;23.50;58.40;;;;;;5063105;28;20386;-70
2021/09/29 09:40:59;;;;;;;1.83;1.00;;;23.40;58.40;;;;;;5061404;28;20392;-70
2021/09/29 09:43:29;;;;;;;2.17;1.23;;;23.50;58.40;;;;;;5061973;28;20472;-71
2021/09/29 09:45:56;;;;;;;2.53;1.08;;;23.40;58.30;;;;;;5061915;28;20433;-72
2021/09/29 09:48:27;;;;;;;2.28;1.20;;;23.40;58.30;;;;;;5061619;28;20664;-70
2021/09/29 09:51:06;;;;;;;1.67;1.10;;;23.40;58.40;;;;;;5061134;28;20930;-70
2021/09/29 09:53:35;;;;;;;2.30;1.00;;;23.40;58.40;;;;;;5061257;28;20748;-70
2021/09/29 09:56:32;;;;;;;1.67;1.10;;;23.40;58.40;;;;;;5061514;28;20411;-70
2021/09/29 09:58:58;;;;;;;3.30;1.20;;;23.40;58.40;;;;;;5052722;28;20388;-72
2021/09/29 10:01:28;;;;;;;1.60;1.08;;;23.40;58.30;;;;;;5061890;28;20380;-71
2021/09/29 10:03:55;;;;;;;2.72;1.23;;;23.40;58.30;;;;;;5061854;28;20392;-70
2021/09/29 10:06:22;;;;;;;2.80;1.10;;;23.40;58.30;;;;;;5061730;28;20914;-72
2021/09/29 10:09:03;;;;;;;1.65;1.10;;;23.40;58.30;;;;;;5061018;28;20419;-71
2021/09/29 10:11:37;;;;;;;1.67;0.90;;;23.40;58.30;;;;;;5061485;28;20415;-71
2021/09/29 10:14:19;;;;;;;3.85;1.10;;;23.40;58.30;;;;;;5065628;28;20390;-73
2021/09/29 10:28:00;;;;;;;3.63;1.30;;;23.60;58.40;;;;;;5062619;28;20824;-71
2021/09/29 10:30:32;;;;;;;3.07;1.40;;;23.60;58.90;;;;;;5062384;28;20419;-71
2021/09/29 10:33:02;;;;;;;3.65;1.17;;;23.60;58.80;;;;;;5062272;28;20735;-70
2021/09/29 10:41:07;;;;;;;3.47;1.27;;;23.50;58.60;;;;;;5066251;28;20433;-71
2021/09/29 11:30:21;;;;;;;4.50;1.10;;;23.60;59.00;;;;;;5065748;28;20557;-68
2021/09/29 11:32:56;;;;;;;3.65;1.20;;;23.60;58.90;;;;;;5065719;28;20372;-67
2021/09/29 12:11:49;;;;;;;6.45;3.15;;;23.80;59.20;;;;;;5052183;28;20465;-67
2021/09/29 12:14:17;;;;;;;8.70;2.70;;;23.80;59.00;;;;;;5051134;28;20965;-67
2021/09/29 12:16:44;;;;;;;7.22;2.50;;;23.70;59.00;;;;;;5063711;28;20883;-67
2021/09/29 12:19:27;;;;;;;6.00;2.00;;;23.70;59.00;;;;;;5064025;28;20450;-68
2021/09/29 12:21:58;;;;;;;5.05;2.30;;;23.70;59.40;;;;;;5063213;28;20392;-67
2021/09/29 12:24:32;;;;;;;5.05;1.85;;;23.70;58.80;;;;;;5062828;28;20391;-68
2021/09/29 12:27:00;;;;;;;6.97;1.88;;;23.60;58.80;;;;;;5063694;28;20457;-67
2021/09/29 12:29:38;;;;;;;7.13;1.90;;;23.60;59.50;;;;;;5051840;28;20590;-68
2021/09/29 12:37:39;;;;;;;3.35;1.38;;;23.60;58.40;;;;;;5064275;28;20391;-67
2021/09/29 12:40:06;;;;;;;4.07;1.60;;;23.60;58.40;;;;;;5063604;28;20388;-67
2021/09/29 12:42:35;;;;;;;3.40;1.50;;;23.60;58.20;;;;;;5053106;28;20404;-67
2021/09/29 12:45:02;;;;;;;3.10;1.20;;;23.60;58.10;;;;;;5063544;28;20986;-67
2021/09/29 12:50:04;;;;;;;4.67;1.50;;;23.60;58.10;;;;;;5063854;28;20411;-67
2021/09/29 12:52:36;;;;;;;2.95;1.30;;;23.60;58.10;;;;;;5063783;28;20495;-68
2021/09/29 12:55:03;;;;;;;3.35;1.38;;;23.50;57.90;;;;;;5062853;28;20868;-67
2021/09/29 12:57:30;;;;;;;2.85;1.20;;;23.50;57.80;;;;;;5049326;28;20908;-68
2021/09/29 12:59:59;;;;;;;3.05;1.30;;;23.50;57.80;;;;;;5063254;28;20438;-68
2021/09/29 13:02:25;;;;;;;2.45;1.13;;;23.50;57.70;;;;;;5062980;28;20803;-68
2021/09/29 13:04:52;;;;;;;2.60;1.20;;;23.50;57.60;;;;;;5062672;28;20391;-67
2021/09/29 13:07:18;;;;;;;4.00;1.20;;;23.50;57.60;;;;;;5063254;28;21434;-68
2021/09/29 13:09:43;;;;;;;2.70;1.15;;;23.50;57.60;;;;;;5063325;28;21349;-67
2021/09/29 13:12:10;;;;;;;3.27;1.17;;;23.50;57.50;;;;;;5063440;28;20396;-68
2021/09/29 13:14:36;;;;;;;3.00;1.20;;;23.50;57.50;;;;;;5062974;28;20383;-67
2021/09/29 13:17:02;;;;;;;3.95;1.15;;;23.50;57.50;;;;;;5062814;28;20388;-68
2021/09/29 13:19:34;;;;;;;2.07;0.90;;;23.50;57.50;;;;;;5063069;28;20372;-67
2021/09/29 13:22:05;;;;;;;2.45;0.93;;;23.50;57.40;;;;;;5063418;28;20395;-68
2021/09/29 13:24:52;;;;;;;3.80;1.02;;;23.50;57.40;;;;;;5063109;28;20376;-68
2021/09/29 13:37:55;;;;;;;2.10;0.90;;;23.50;57.30;;;;;;5062299;28;20383;-68
2021/09/29 13:40:21;;;;;;;1.98;0.90;;;23.50;57.30;;;;;;5062696;28;21017;-68
2021/09/29 13:42:47;;;;;;;1.77;0.90;;;23.40;57.30;;;;;;5062594;28;20387;-68
2021/09/29 13:45:12;;;;;;;1.70;0.80;;;23.50;57.30;;;;;;5062585;28;20391;-68
2021/09/29 13:47:38;;;;;;;2.30;0.90;;;23.40;57.20;;;;;;5062745;28;20506;-68
2021/09/29 13:50:05;;;;;;;2.27;0.83;;;23.40;57.30;;;;;;5062458;28;20419;-68
2021/09/29 13:52:32;;;;;;;1.85;0.95;;;23.40;57.20;;;;;;5062451;28;20872;-67
2021/09/29 13:55:03;;;;;;;2.33;0.83;;;23.40;57.20;;;;;;5062345;28;20391;-67
2021/09/29 13:57:41;;;;;;;2.10;0.90;;;23.40;57.20;;;;;;5062555;28;20398;-68
2021/09/29 14:00:18;;;;;;;1.48;0.85;;;23.40;57.20;;;;;;5062556;28;20491;-68
2021/09/29 14:30:34;;;;;;;1.50;1.00;;;23.40;57.40;;;;;;5061796;28;20475;-68
2021/09/29 14:35:26;;;;;;;1.00;0.60;;;23.40;56.70;;;;;;5062360;28;20399;-68
2021/09/29 14:37:52;;;;;;;1.23;0.67;;;23.40;56.60;;;;;;5061992;28;20458;-67
2021/09/29 14:40:19;;;;;;;1.70;0.70;;;23.30;56.50;;;;;;5062322;28;20384;-68
2021/09/29 14:42:46;;;;;;;1.20;0.70;;;23.40;56.50;;;;;;5061553;28;20388;-68
2021/09/29 14:45:12;;;;;;;1.77;0.80;;;23.40;56.50;;;;;;5061796;28;20474;-68
2021/09/29 14:47:38;;;;;;;1.60;0.80;;;23.30;56.50;;;;;;5062296;28;20399;-68
2021/09/29 14:50:04;;;;;;;1.38;0.80;;;23.30;56.50;;;;;;5061830;28;20415;-68
2021/09/29 14:52:30;;;;;;;1.43;0.70;;;23.30;56.60;;;;;;5062051;28;20384;-68
2021/09/29 14:54:56;;;;;;;1.20;0.60;;;23.30;56.50;;;;;;5061866;28;20466;-68
2021/09/29 14:57:22;;;;;;;1.92;0.80;;;23.30;56.40;;;;;;5060639;28;20487;-68
2021/09/29 14:59:47;;;;;;;2.00;0.90;;;23.30;56.40;;;;;;5062032;28;21446;-68
2021/09/29 15:02:14;;;;;;;1.73;0.80;;;23.30;56.30;;;;;;5061961;28;20771;-68
2021/09/29 15:04:40;;;;;;;1.85;0.95;;;23.30;56.20;;;;;;5062024;28;20387;-68
2021/09/29 15:07:06;;;;;;;1.90;0.68;;;23.30;56.30;;;;;;5061379;28;20391;-68
2021/09/29 15:09:32;;;;;;;1.87;0.90;;;23.30;56.30;;;;;;5061729;28;20403;-67
2021/09/29 15:11:58;;;;;;;1.27;0.70;;;23.30;56.30;;;;;;5061433;28;20748;-68
2021/09/29 15:14:46;;;;;;;1.40;0.83;;;23.30;56.20;;;;;;5061770;28;20485;-68
2021/09/29 15:20:18;;;;;;;1.48;0.73;;;23.30;56.10;;;;;;5037668;28;20802;-68
2021/09/29 15:46:32;;;;;;;1.20;0.50;;;23.20;56.00;;;;;;5065216;28;20387;-68
2021/09/29 15:55:22;;;;;;;1.80;0.70;;;23.20;56.10;;;;;;5048519;28;20428;-68
2021/09/29 15:59:54;;;;;;;1.10;0.60;;;23.20;56.20;;;;;;5064990;28;20430;-68
2021/09/29 16:18:21;;;;;;;2.75;1.00;;;23.20;56.30;;;;;;5062618;28;20419;-67
2021/09/29 16:31:30;;;;;;;7.28;1.30;;;23.20;57.40;;;;;;5062607;28;20453;-68
2021/09/29 16:36:32;;;;;;;6.95;2.50;;;23.30;59.10;;;;;;5063224;28;20900;-68
2021/09/29 16:38:57;;;;;;;8.35;3.42;;;23.30;61.20;;;;;;5062985;28;20913;-68
2021/09/29 16:41:23;;;;;;;7.53;2.87;;;23.40;64.80;;;;;;5062504;28;20414;-67
2021/09/29 16:43:50;;;;;;;6.68;2.60;;;23.50;64.30;;;;;;5062834;28;20470;-69
2021/09/29 16:46:19;;;;;;;15.10;5.55;;;23.50;63.70;;;;;;5063484;28;20504;-68
2021/09/29 16:48:45;;;;;;;17.03;7.90;;;23.60;65.70;;;;;;5069659;28;20820;-68
2021/09/29 16:53:51;;;;;;;20.27;6.65;;;23.70;66.10;;;;;;5067700;28;20399;-68
2021/09/29 16:56:17;;;;;;;11.77;3.72;;;23.70;65.40;;;;;;5063844;28;20395;-68
2021/09/29 17:01:35;;;;;;;13.43;3.40;;;23.80;64.70;;;;;;5048064;28;20396;-67
2021/09/29 17:04:01;;;;;;;8.90;2.10;;;23.90;64.20;;;;;;5064197;28;20395;-67
2021/09/29 17:06:27;;;;;;;7.23;1.80;;;24.00;63.50;;;;;;5062939;28;20399;-68
2021/09/29 17:08:54;;;;;;;6.20;1.80;;;24.00;62.50;;;;;;5063352;28;20410;-68